Time;durP1;ratioP1;P1;durP2;ratioP2;P2;SDS_P1;SDS_P2;PMS_P1;PMS_P2;Temp;Humidity;BMP_temperature;BMP_pressure;BME280_temperature;BME280_humidity;BME280_pressure;Samples;Min_cycle;Max_cycle;Signal;HPM_P1;HPM_P2
2023/01/05 00:01:58;;;;;;;7.85;3.58;;;;;;;;;;5033866;28;20038;-64
2023/01/05 00:04:24;;;;;;;15.50;4.40;;;;;;;;;;5032633;28;20040;-64
2023/01/05 00:06:50;;;;;;;16.40;3.08;;;;;;;;;;5032881;28;20087;-64
2023/01/05 00:09:17;;;;;;;16.80;3.22;;;;;;;;;;5032899;28;20140;-64
2023/01/05 00:22:45;;;;;;;10.38;2.40;;;;;;;;;;5033405;28;20041;-64
2023/01/05 00:25:13;;;;;;;10.95;2.97;;;;;;;;;;5033111;28;20109;-64
2023/01/05 00:27:43;;;;;;;9.65;2.50;;;;;;;;;;5033217;28;20087;-64
2023/01/05 00:30:10;;;;;;;9.07;2.40;;;;;;;;;;5033183;28;20075;-64
2023/01/05 00:32:37;;;;;;;8.07;2.00;;;;;;;;;;5033217;28;20029;-64
2023/01/05 00:35:04;;;;;;;13.95;2.78;;;;;;;;;;5032343;28;20077;-64
2023/01/05 00:37:31;;;;;;;5.93;1.85;;;;;;;;;;5031619;28;20060;-64
2023/01/05 00:39:57;;;;;;;7.40;1.85;;;;;;;;;;5033128;28;20470;-64
2023/01/05 00:42:23;;;;;;;10.80;2.70;;;;;;;;;;5032817;28;20029;-64
2023/01/05 00:44:49;;;;;;;10.10;3.33;;;;;;;;;;5033088;28;20049;-64
2023/01/05 00:47:16;;;;;;;11.95;2.40;;;;;;;;;;5032545;28;20501;-64
2023/01/05 00:49:42;;;;;;;12.18;2.50;;;;;;;;;;5032586;28;20101;-64
2023/01/05 00:52:08;;;;;;;12.48;2.88;;;;;;;;;;5032479;28;20435;-64
2023/01/05 00:54:34;;;;;;;11.35;3.35;;;;;;;;;;5032436;28;20033;-64
2023/01/05 00:57:01;;;;;;;7.13;2.60;;;;;;;;;;5031455;28;20051;-64
2023/01/05 00:59:28;;;;;;;10.80;3.22;;;;;;;;;;5032794;28;20029;-65
2023/01/05 01:01:54;;;;;;;9.30;3.05;;;;;;;;;;5031450;28;20022;-64
2023/01/05 01:04:21;;;;;;;10.48;2.90;;;;;;;;;;5030914;28;20037;-64
2023/01/05 01:06:47;;;;;;;8.23;3.38;;;;;;;;;;5032614;28;20029;-64
2023/01/05 01:09:14;;;;;;;6.22;2.58;;;;;;;;;;5032501;28;20410;-65
2023/01/05 01:11:40;;;;;;;10.38;3.20;;;;;;;;;;5031392;28;20064;-64
2023/01/05 01:14:07;;;;;;;9.15;3.53;;;;;;;;;;5032717;28;20037;-64
2023/01/05 01:16:33;;;;;;;9.23;2.70;;;;;;;;;;5032426;28;20528;-64
2023/01/05 01:19:00;;;;;;;7.88;3.30;;;;;;;;;;5032357;28;20049;-64
2023/01/05 01:21:26;;;;;;;6.72;2.42;;;;;;;;;;5032567;28;20030;-65
2023/01/05 01:23:52;;;;;;;5.90;2.92;;;;;;;;;;5032561;28;20033;-64
2023/01/05 01:26:18;;;;;;;6.55;2.80;;;;;;;;;;5032255;28;20029;-65
2023/01/05 01:28:46;;;;;;;8.95;3.38;;;;;;;;;;5031333;28;20033;-65
2023/01/05 01:31:12;;;;;;;6.35;2.35;;;;;;;;;;5031008;28;20488;-64
2023/01/05 01:33:39;;;;;;;8.18;2.42;;;;;;;;;;5031924;28;20030;-64
2023/01/05 01:36:06;;;;;;;5.28;2.20;;;;;;;;;;5031216;28;20117;-64
2023/01/05 01:38:32;;;;;;;6.95;2.25;;;;;;;;;;5032251;28;20033;-64
2023/01/05 01:40:58;;;;;;;6.20;2.97;;;;;;;;;;5031910;28;20025;-64
2023/01/05 01:43:44;;;;;;;4.57;2.10;;;;;;;;;;5030876;28;20041;-64
2023/01/05 01:46:11;;;;;;;6.40;2.45;;;;;;;;;;5030889;28;20033;-64
2023/01/05 01:48:39;;;;;;;5.95;2.60;;;;;;;;;;5030726;28;20026;-64
2023/01/05 01:51:07;;;;;;;5.60;2.05;;;;;;;;;;5032461;28;20414;-64
2023/01/05 01:53:35;;;;;;;7.97;2.13;;;;;;;;;;5032003;28;20033;-65
2023/01/05 01:56:03;;;;;;;6.25;2.20;;;;;;;;;;5030682;28;20041;-64
2023/01/05 01:58:30;;;;;;;6.22;2.20;;;;;;;;;;5030753;28;20033;-64
2023/01/05 02:01:00;;;;;;;6.85;1.77;;;;;;;;;;5031975;28;20033;-65
2023/01/05 02:03:30;;;;;;;2.33;1.83;;;;;;;;;;5031837;28;20029;-65
2023/01/05 02:05:57;;;;;;;3.97;1.65;;;;;;;;;;5034343;28;20030;-64
2023/01/05 02:08:32;;;;;;;4.78;2.10;;;;;;;;;;5035683;28;20029;-64
2023/01/05 02:11:17;;;;;;;5.95;1.92;;;;;;;;;;5034649;28;20026;-64
2023/01/05 02:14:01;;;;;;;9.00;2.35;;;;;;;;;;5035674;28;20064;-64
2023/01/05 02:16:51;;;;;;;6.40;2.05;;;;;;;;;;5033850;28;20037;-64
2023/01/05 02:19:36;;;;;;;3.83;1.63;;;;;;;;;;5034053;28;20033;-64
2023/01/05 02:22:20;;;;;;;5.72;2.38;;;;;;;;;;5035647;28;20107;-64
2023/01/05 02:24:50;;;;;;;3.60;1.90;;;;;;;;;;5034243;28;20033;-64
2023/01/05 02:27:35;;;;;;;3.30;1.70;;;;;;;;;;5033645;28;20030;-64
2023/01/05 02:30:21;;;;;;;4.82;1.42;;;;;;;;;;5034103;28;20410;-64
2023/01/05 02:32:53;;;;;;;3.55;1.80;;;;;;;;;;5035383;28;20117;-65
2023/01/05 02:35:26;;;;;;;3.95;1.60;;;;;;;;;;5033586;28;20583;-64
2023/01/05 02:38:00;;;;;;;11.57;1.90;;;;;;;;;;5035274;28;20057;-64
2023/01/05 02:40:31;;;;;;;8.85;2.20;;;;;;;;;;5034977;28;20025;-64
2023/01/05 02:42:59;;;;;;;6.43;2.10;;;;;;;;;;5033117;28;20033;-64
2023/01/05 02:45:25;;;;;;;3.75;1.75;;;;;;;;;;5032893;28;20369;-64
2023/01/05 02:47:57;;;;;;;4.57;2.15;;;;;;;;;;5032867;28;20116;-64
2023/01/05 02:50:26;;;;;;;7.55;2.25;;;;;;;;;;5034637;28;20025;-64
2023/01/05 02:52:57;;;;;;;9.13;2.28;;;;;;;;;;5033368;28;20517;-65
2023/01/05 02:55:28;;;;;;;13.23;2.40;;;;;;;;;;5033007;28;20397;-65
2023/01/05 02:57:57;;;;;;;5.72;2.25;;;;;;;;;;5033468;28;20036;-64
2023/01/05 03:00:33;;;;;;;8.80;2.35;;;;;;;;;;5033074;28;20100;-64
2023/01/05 03:03:05;;;;;;;5.82;2.90;;;;;;;;;;5033518;28;20029;-65
2023/01/05 03:05:33;;;;;;;5.55;2.13;;;;;;;;;;5034491;28;20056;-65
2023/01/05 03:08:06;;;;;;;2.97;1.98;;;;;;;;;;5033258;28;20140;-64
2023/01/05 03:13:52;;;;;;;9.60;2.63;;;;;;;;;;5032844;28;20492;-64
2023/01/05 03:16:22;;;;;;;13.70;2.03;;;;;;;;;;5032251;28;20037;-64
2023/01/05 03:35:32;;;;;;;9.18;2.10;;;;;;;;;;5032337;28;20124;-64
2023/01/05 03:38:01;;;;;;;10.90;2.47;;;;;;;;;;5032789;28;20515;-65
2023/01/05 03:40:29;;;;;;;9.13;1.98;;;;;;;;;;5032594;28;20148;-64
2023/01/05 03:42:56;;;;;;;7.03;1.70;;;;;;;;;;5032554;28;20033;-64
2023/01/05 03:45:24;;;;;;;6.75;1.40;;;;;;;;;;5034134;28;20116;-65
2023/01/05 03:47:52;;;;;;;8.40;1.77;;;;;;;;;;5032474;28;20021;-64
2023/01/05 03:50:23;;;;;;;6.70;2.08;;;;;;;;;;5032269;28;20473;-64
2023/01/05 03:52:49;;;;;;;9.65;2.05;;;;;;;;;;5032298;28;20037;-65
2023/01/05 03:55:15;;;;;;;7.57;1.75;;;;;;;;;;5032504;28;20022;-65
2023/01/05 03:57:42;;;;;;;6.32;1.50;;;;;;;;;;5031917;28;20033;-65
2023/01/05 04:00:09;;;;;;;8.75;1.45;;;;;;;;;;5032340;28;20061;-65
2023/01/05 04:02:44;;;;;;;7.57;1.52;;;;;;;;;;5033562;28;20046;-65
2023/01/05 04:05:14;;;;;;;9.40;1.85;;;;;;;;;;5032454;28;20040;-64
2023/01/05 04:07:41;;;;;;;9.45;1.83;;;;;;;;;;5033292;28;20029;-65
2023/01/05 04:10:07;;;;;;;16.40;2.85;;;;;;;;;;5032242;28;20028;-65
2023/01/05 04:12:33;;;;;;;15.38;2.25;;;;;;;;;;5033119;28;20108;-65
2023/01/05 04:14:59;;;;;;;18.23;3.20;;;;;;;;;;5032181;28;20022;-64
2023/01/05 04:17:26;;;;;;;19.88;3.30;;;;;;;;;;5035046;28;20032;-65
2023/01/05 04:19:53;;;;;;;19.08;3.13;;;;;;;;;;5031998;28;20029;-65
2023/01/05 04:22:21;;;;;;;16.80;2.75;;;;;;;;;;5031736;28;20393;-65
2023/01/05 04:24:47;;;;;;;25.30;3.00;;;;;;;;;;5031543;28;20026;-65
2023/01/05 04:27:13;;;;;;;18.05;2.92;;;;;;;;;;5032638;28;20034;-65
2023/01/05 04:29:39;;;;;;;15.80;2.83;;;;;;;;;;5032976;28;20056;-65
2023/01/05 04:32:06;;;;;;;20.58;2.90;;;;;;;;;;5033208;28;20029;-65
2023/01/05 04:34:33;;;;;;;15.65;2.53;;;;;;;;;;5032952;28;20045;-65
2023/01/05 04:37:00;;;;;;;17.13;2.85;;;;;;;;;;5032994;28;20040;-65
2023/01/05 04:39:29;;;;;;;17.92;2.70;;;;;;;;;;5031892;28;20032;-65
2023/01/05 04:41:57;;;;;;;15.95;2.72;;;;;;;;;;5031258;28;20504;-65
2023/01/05 04:44:23;;;;;;;15.43;3.20;;;;;;;;;;5052311;28;20025;-65
2023/01/05 04:46:50;;;;;;;24.48;2.97;;;;;;;;;;5051431;28;20051;-65
2023/01/05 04:49:17;;;;;;;21.50;2.72;;;;;;;;;;5051480;28;20021;-65
2023/01/05 04:51:47;;;;;;;11.95;2.53;;;;;;;;;;5016646;28;20026;-65
2023/01/05 04:54:13;;;;;;;10.60;2.80;;;;;;;;;;5011972;28;20061;-65
2023/01/05 04:56:40;;;;;;;15.75;2.15;;;;;;;;;;5011332;28;20034;-65
2023/01/05 04:59:08;;;;;;;17.15;2.05;;;;;;;;;;5029539;28;20447;-64
2023/01/05 05:01:35;;;;;;;18.05;2.28;;;;;;;;;;5051345;28;20389;-65
2023/01/05 05:04:03;;;;;;;21.25;2.60;;;;;;;;;;5039591;28;20056;-65
2023/01/05 05:06:29;;;;;;;16.35;3.58;;;;;;;;;;5032163;28;20737;-65
2023/01/05 05:08:56;;;;;;;16.60;3.65;;;;;;;;;;5034646;28;20033;-65
2023/01/05 05:11:23;;;;;;;14.98;2.83;;;;;;;;;;5031089;28;20036;-64
2023/01/05 05:13:50;;;;;;;16.23;3.42;;;;;;;;;;5031066;28;20465;-65
2023/01/05 05:16:16;;;;;;;27.45;4.45;;;;;;;;;;5032851;28;20038;-64
2023/01/05 05:18:45;;;;;;;16.45;2.85;;;;;;;;;;5031163;28;20474;-64
2023/01/05 05:21:17;;;;;;;23.95;4.30;;;;;;;;;;5031128;28;20037;-64
2023/01/05 05:23:43;;;;;;;28.58;3.15;;;;;;;;;;5031119;28;20038;-64
2023/01/05 05:26:09;;;;;;;20.75;3.13;;;;;;;;;;5030835;28;20040;-64
2023/01/05 05:28:36;;;;;;;13.45;3.22;;;;;;;;;;5030812;28;20029;-64
2023/01/05 05:31:02;;;;;;;28.88;4.55;;;;;;;;;;5032468;28;20049;-64
2023/01/05 05:33:28;;;;;;;23.35;3.88;;;;;;;;;;5032484;28;20402;-64
2023/01/05 05:35:54;;;;;;;28.30;3.55;;;;;;;;;;5032092;28;20037;-64
2023/01/05 05:38:20;;;;;;;19.90;2.90;;;;;;;;;;5032355;28;20040;-64
2023/01/05 05:40:48;;;;;;;13.10;2.60;;;;;;;;;;5035962;28;20025;-64
2023/01/05 05:43:14;;;;;;;31.92;4.07;;;;;;;;;;5036418;28;20432;-64
2023/01/05 05:45:40;;;;;;;22.02;3.58;;;;;;;;;;5036140;28;20029;-64
2023/01/05 05:48:06;;;;;;;17.80;2.78;;;;;;;;;;5036236;28;20041;-64
2023/01/05 05:50:32;;;;;;;24.58;3.67;;;;;;;;;;5036301;28;20105;-64
2023/01/05 05:53:05;;;;;;;21.13;3.47;;;;;;;;;;5035859;28;20486;-64
2023/01/05 05:55:32;;;;;;;32.22;4.95;;;;;;;;;;5036038;28;20079;-64
2023/01/05 05:57:58;;;;;;;33.28;4.13;;;;;;;;;;5035995;28;20037;-64
2023/01/05 06:00:24;;;;;;;35.70;4.38;;;;;;;;;;5035966;28;20036;-64
2023/01/05 06:02:50;;;;;;;31.63;4.97;;;;;;;;;;5034819;28;20033;-64
2023/01/05 06:05:16;;;;;;;24.70;3.88;;;;;;;;;;5035645;28;20040;-64
2023/01/05 06:07:42;;;;;;;32.22;6.10;;;;;;;;;;5018470;28;20489;-64
2023/01/05 06:10:08;;;;;;;28.42;4.57;;;;;;;;;;5035415;28;20033;-64
2023/01/05 06:12:35;;;;;;;27.05;3.95;;;;;;;;;;5035194;28;20022;-64
2023/01/05 06:15:01;;;;;;;25.75;5.13;;;;;;;;;;5035353;28;20021;-65
2023/01/05 06:17:27;;;;;;;36.95;4.70;;;;;;;;;;5035162;28;20092;-65
2023/01/05 06:19:53;;;;;;;30.02;4.53;;;;;;;;;;5034963;28;20029;-64
2023/01/05 06:22:19;;;;;;;29.52;4.43;;;;;;;;;;5032456;28;20021;-64
2023/01/05 06:24:48;;;;;;;32.65;4.45;;;;;;;;;;5031777;28;20022;-65
2023/01/05 06:27:14;;;;;;;21.17;3.92;;;;;;;;;;5028396;28;20040;-65
2023/01/05 06:29:40;;;;;;;30.60;4.78;;;;;;;;;;5026799;28;20029;-65
2023/01/05 06:32:06;;;;;;;41.35;3.95;;;;;;;;;;5032879;28;20029;-65
2023/01/05 06:34:32;;;;;;;27.17;4.80;;;;;;;;;;5035025;28;20539;-64
2023/01/05 06:36:58;;;;;;;34.00;4.22;;;;;;;;;;5025616;28;20386;-65
2023/01/05 06:39:24;;;;;;;40.80;4.57;;;;;;;;;;5022610;28;20041;-66
2023/01/05 06:41:50;;;;;;;24.88;3.13;;;;;;;;;;5031630;28;20044;-65
2023/01/05 06:44:17;;;;;;;22.20;4.57;;;;;;;;;;5032500;28;20033;-65
2023/01/05 06:46:43;;;;;;;23.58;4.07;;;;;;;;;;5034445;28;20025;-65
2023/01/05 06:49:11;;;;;;;32.63;3.92;;;;;;;;;;5034480;28;20025;-65
2023/01/05 06:51:39;;;;;;;27.48;4.63;;;;;;;;;;5032396;28;20034;-65
2023/01/05 06:54:05;;;;;;;35.03;4.75;;;;;;;;;;5034694;28;20072;-64
2023/01/05 06:56:31;;;;;;;31.92;4.25;;;;;;;;;;5024497;28;20064;-64
2023/01/05 06:58:57;;;;;;;27.35;3.80;;;;;;;;;;5034325;28;20064;-65
2023/01/05 07:01:23;;;;;;;30.20;4.70;;;;;;;;;;5034411;28;20036;-65
2023/01/05 07:03:50;;;;;;;29.25;5.70;;;;;;;;;;5034358;28;20128;-66
2023/01/05 07:06:16;;;;;;;33.05;4.88;;;;;;;;;;5033747;28;20033;-64
2023/01/05 07:08:42;;;;;;;21.80;4.70;;;;;;;;;;5034269;28;20021;-65
2023/01/05 07:11:08;;;;;;;27.42;5.13;;;;;;;;;;5034078;28;20029;-65
2023/01/05 07:13:35;;;;;;;37.75;4.50;;;;;;;;;;5034462;28;20026;-64
2023/01/05 07:16:01;;;;;;;25.17;4.97;;;;;;;;;;5033780;28;20470;-64
2023/01/05 07:18:27;;;;;;;44.13;4.97;;;;;;;;;;5029493;28;20540;-64
2023/01/05 07:20:53;;;;;;;40.35;4.85;;;;;;;;;;5032328;28;20043;-64
2023/01/05 07:23:19;;;;;;;29.83;3.90;;;;;;;;;;5034167;28;20031;-65
2023/01/05 07:25:45;;;;;;;43.78;6.10;;;;;;;;;;5033486;28;20032;-65
2023/01/05 07:28:12;;;;;;;35.08;4.45;;;;;;;;;;5033914;28;20033;-64
2023/01/05 07:30:38;;;;;;;41.10;6.85;;;;;;;;;;5023631;28;20083;-64
2023/01/05 07:33:04;;;;;;;43.13;5.45;;;;;;;;;;5033923;28;20030;-64
2023/01/05 07:35:30;;;;;;;35.20;5.13;;;;;;;;;;5033103;28;20045;-64
2023/01/05 07:37:56;;;;;;;32.08;4.40;;;;;;;;;;5033739;28;20045;-64
2023/01/05 07:40:22;;;;;;;35.80;5.38;;;;;;;;;;5033590;28;20025;-64
2023/01/05 07:42:52;;;;;;;30.55;4.35;;;;;;;;;;5023698;28;20036;-64
2023/01/05 07:45:18;;;;;;;33.47;5.30;;;;;;;;;;5032470;28;20025;-64
2023/01/05 07:47:44;;;;;;;29.13;5.07;;;;;;;;;;5032995;28;20116;-64
2023/01/05 07:50:11;;;;;;;39.65;5.97;;;;;;;;;;5031886;28;20021;-65
2023/01/05 07:52:38;;;;;;;37.58;5.15;;;;;;;;;;5026093;28;20033;-65
2023/01/05 07:55:04;;;;;;;39.45;4.95;;;;;;;;;;5028901;28;20087;-65
2023/01/05 07:57:31;;;;;;;40.67;6.15;;;;;;;;;;5033563;28;20135;-64
2023/01/05 07:59:57;;;;;;;34.13;5.13;;;;;;;;;;5033147;28;20086;-65
2023/01/05 08:02:23;;;;;;;31.48;4.60;;;;;;;;;;5033111;28;20025;-64
2023/01/05 08:04:49;;;;;;;25.40;5.32;;;;;;;;;;5032857;28;20033;-64
2023/01/05 08:07:15;;;;;;;34.17;5.25;;;;;;;;;;5033094;28;20037;-64
2023/01/05 08:12:27;;;;;;;23.75;3.92;;;;;;;;;;5032896;28;20040;-64
2023/01/05 08:14:53;;;;;;;25.15;4.70;;;;;;;;;;5033154;28;20033;-64
2023/01/05 08:17:19;;;;;;;37.97;5.85;;;;;;;;;;5032896;28;20038;-64
2023/01/05 08:19:46;;;;;;;27.70;4.32;;;;;;;;;;5032524;28;20025;-64
2023/01/05 08:22:12;;;;;;;31.63;4.57;;;;;;;;;;5032745;28;20124;-64
2023/01/05 08:24:38;;;;;;;21.58;3.50;;;;;;;;;;5032980;28;20083;-64
2023/01/05 08:27:04;;;;;;;20.15;3.42;;;;;;;;;;5031146;28;20037;-64
2023/01/05 08:29:30;;;;;;;25.83;3.63;;;;;;;;;;5022797;28;20030;-64
2023/01/05 08:31:56;;;;;;;21.55;3.95;;;;;;;;;;5031578;28;20041;-64
2023/01/05 08:34:23;;;;;;;19.98;3.75;;;;;;;;;;5032459;28;20116;-64
2023/01/05 08:36:49;;;;;;;22.30;4.40;;;;;;;;;;5032167;28;20469;-64
2023/01/05 08:39:15;;;;;;;26.25;3.97;;;;;;;;;;5032621;28;20120;-64
2023/01/05 08:41:41;;;;;;;22.92;3.65;;;;;;;;;;5032667;28;20040;-64
2023/01/05 08:44:10;;;;;;;15.80;3.63;;;;;;;;;;5032760;28;20026;-64
2023/01/05 08:46:36;;;;;;;22.27;3.22;;;;;;;;;;5032345;28;20090;-64
2023/01/05 08:49:04;;;;;;;20.85;3.60;;;;;;;;;;5032078;28;20424;-64
2023/01/05 08:51:30;;;;;;;19.10;3.60;;;;;;;;;;5032501;28;20486;-64
2023/01/05 08:53:56;;;;;;;19.77;3.42;;;;;;;;;;5032429;28;20025;-64
2023/01/05 08:56:25;;;;;;;17.52;3.58;;;;;;;;;;5032140;28;20492;-64
2023/01/05 08:58:51;;;;;;;16.10;3.40;;;;;;;;;;5032614;28;20486;-64
2023/01/05 09:01:20;;;;;;;18.80;3.13;;;;;;;;;;5032096;28;20482;-64
2023/01/05 09:03:46;;;;;;;29.02;3.72;;;;;;;;;;5032194;28;20382;-64
2023/01/05 09:06:13;;;;;;;29.25;4.18;;;;;;;;;;5032181;28;20036;-64
2023/01/05 09:08:40;;;;;;;18.27;3.20;;;;;;;;;;5032424;28;20028;-64
2023/01/05 09:11:08;;;;;;;15.73;3.25;;;;;;;;;;5032077;28;20051;-64
2023/01/05 09:13:34;;;;;;;21.98;3.55;;;;;;;;;;5031665;28;20021;-64
2023/01/05 09:16:19;;;;;;;14.02;2.17;;;;;;;;;;5031749;28;20117;-64
2023/01/05 09:18:46;;;;;;;22.80;3.47;;;;;;;;;;5031949;28;20021;-64
2023/01/05 09:21:12;;;;;;;20.05;3.53;;;;;;;;;;5032422;28;20531;-64
2023/01/05 09:23:39;;;;;;;16.27;3.10;;;;;;;;;;5032144;28;20473;-64
2023/01/05 09:26:06;;;;;;;28.20;3.38;;;;;;;;;;5031995;28;20025;-64
2023/01/05 09:28:34;;;;;;;18.55;3.85;;;;;;;;;;5031163;28;20045;-64
2023/01/05 09:31:05;;;;;;;17.98;3.17;;;;;;;;;;5022907;28;20036;-64
2023/01/05 09:33:31;;;;;;;25.70;3.20;;;;;;;;;;5031738;28;20033;-64
2023/01/05 09:35:57;;;;;;;16.80;3.00;;;;;;;;;;5032084;28;20520;-64
2023/01/05 09:38:24;;;;;;;26.30;3.47;;;;;;;;;;5031457;28;20117;-64
2023/01/05 09:40:51;;;;;;;18.63;3.40;;;;;;;;;;5032008;28;20065;-64
2023/01/05 09:43:21;;;;;;;23.17;3.45;;;;;;;;;;5031657;28;20779;-64
2023/01/05 09:45:48;;;;;;;17.13;2.85;;;;;;;;;;5031869;28;20086;-64
2023/01/05 09:48:15;;;;;;;12.95;3.30;;;;;;;;;;5031739;28;20033;-64
2023/01/05 09:50:42;;;;;;;26.70;3.78;;;;;;;;;;5031833;28;20013;-64
2023/01/05 09:53:09;;;;;;;14.73;3.20;;;;;;;;;;5031719;28;20510;-65
2023/01/05 09:55:36;;;;;;;21.00;3.20;;;;;;;;;;5031925;28;20060;-64
2023/01/05 09:58:06;;;;;;;18.20;3.42;;;;;;;;;;5031522;28;20033;-64
2023/01/05 10:00:33;;;;;;;21.13;2.80;;;;;;;;;;5031533;28;20037;-64
2023/01/05 10:03:02;;;;;;;15.50;2.90;;;;;;;;;;5031742;28;20060;-64
2023/01/05 10:05:29;;;;;;;18.80;3.00;;;;;;;;;;5031939;28;20029;-64
2023/01/05 10:08:06;;;;;;;13.32;3.15;;;;;;;;;;5030490;28;20025;-64
2023/01/05 10:13:01;;;;;;;20.13;2.78;;;;;;;;;;5031457;28;20112;-64
2023/01/05 10:13:35;;;;;;;16.77;3.45;;;;;;;;;;5023490;28;20087;-64
2023/01/05 10:16:02;;;;;;;17.65;2.78;;;;;;;;;;5031325;28;20104;-64
2023/01/05 10:18:30;;;;;;;17.80;3.65;;;;;;;;;;5031757;28;20017;-64
2023/01/05 10:21:01;;;;;;;20.75;4.47;;;;;;;;;;5031536;28;20032;-64
2023/01/05 10:23:27;;;;;;;13.68;2.35;;;;;;;;;;5031699;28;20025;-64
2023/01/05 10:26:17;;;;;;;11.02;3.35;;;;;;;;;;5033654;28;20021;-64
2023/01/05 10:28:46;;;;;;;14.20;2.58;;;;;;;;;;5032597;28;20068;-65
2023/01/05 10:31:18;;;;;;;13.70;2.90;;;;;;;;;;5027814;28;20490;-64
2023/01/05 10:33:52;;;;;;;18.63;2.83;;;;;;;;;;5034874;28;20147;-64
2023/01/05 10:36:18;;;;;;;21.33;3.45;;;;;;;;;;5034459;28;20025;-64
2023/01/05 10:39:05;;;;;;;16.60;2.78;;;;;;;;;;5030139;28;20034;-64
2023/01/05 10:41:37;;;;;;;17.50;2.58;;;;;;;;;;5029463;28;20036;-64
2023/01/05 10:44:03;;;;;;;11.70;2.75;;;;;;;;;;5034423;28;20045;-64
2023/01/05 10:46:29;;;;;;;14.90;2.53;;;;;;;;;;5021571;28;20026;-64
2023/01/05 10:48:55;;;;;;;21.00;3.50;;;;;;;;;;5034763;28;20044;-64
2023/01/05 10:51:22;;;;;;;23.40;3.30;;;;;;;;;;5034245;28;20056;-64
2023/01/05 10:53:48;;;;;;;17.00;4.15;;;;;;;;;;5034682;28;20017;-64
2023/01/05 10:56:15;;;;;;;15.68;2.38;;;;;;;;;;5034640;28;20022;-65
2023/01/05 10:58:45;;;;;;;15.82;2.35;;;;;;;;;;5034441;28;20029;-64
2023/01/05 11:01:26;;;;;;;18.33;2.67;;;;;;;;;;5034196;28;20026;-64
2023/01/05 11:03:54;;;;;;;14.10;3.20;;;;;;;;;;5034617;28;20030;-64
2023/01/05 11:06:26;;;;;;;15.40;2.55;;;;;;;;;;5034021;28;20025;-64
2023/01/05 11:08:53;;;;;;;21.88;2.88;;;;;;;;;;5034422;28;20029;-64
2023/01/05 11:11:21;;;;;;;8.80;2.25;;;;;;;;;;5021143;28;20025;-64
2023/01/05 11:13:47;;;;;;;16.15;2.92;;;;;;;;;;5033731;28;20029;-64
2023/01/05 11:16:20;;;;;;;12.95;2.90;;;;;;;;;;5034177;28;20560;-64
2023/01/05 11:18:51;;;;;;;11.82;2.25;;;;;;;;;;5034089;28;20048;-64
2023/01/05 11:21:19;;;;;;;12.48;2.28;;;;;;;;;;5033945;28;20049;-65
2023/01/05 11:23:48;;;;;;;11.43;2.47;;;;;;;;;;5033843;28;20026;-65
2023/01/05 11:26:21;;;;;;;16.63;3.65;;;;;;;;;;5033842;28;20469;-65
2023/01/05 11:28:59;;;;;;;17.63;3.17;;;;;;;;;;5030551;28;20045;-65
2023/01/05 11:31:44;;;;;;;19.70;2.92;;;;;;;;;;5032883;28;20029;-65
2023/01/05 11:34:19;;;;;;;16.75;3.25;;;;;;;;;;5030372;28;20124;-65
2023/01/05 11:36:54;;;;;;;11.98;2.50;;;;;;;;;;5030673;28;20022;-65
2023/01/05 11:39:28;;;;;;;20.77;2.47;;;;;;;;;;5026158;28;20112;-65
2023/01/05 11:42:06;;;;;;;12.32;2.10;;;;;;;;;;5031375;28;20060;-65
2023/01/05 11:44:33;;;;;;;11.82;1.90;;;;;;;;;;5032611;28;20064;-65
2023/01/05 11:46:59;;;;;;;13.90;2.25;;;;;;;;;;5032850;28;20037;-65
2023/01/05 11:49:25;;;;;;;13.48;2.67;;;;;;;;;;5032822;28;20029;-66
2023/01/05 11:51:51;;;;;;;15.25;2.63;;;;;;;;;;5031617;28;20045;-65
2023/01/05 11:54:34;;;;;;;16.33;2.65;;;;;;;;;;5025788;28;20144;-65
2023/01/05 11:57:13;;;;;;;17.65;3.53;;;;;;;;;;5032570;28;20128;-66
2023/01/05 11:59:39;;;;;;;18.17;3.08;;;;;;;;;;5032766;28;20134;-65
2023/01/05 12:02:24;;;;;;;13.48;3.47;;;;;;;;;;5031011;28;20044;-65
2023/01/05 12:04:53;;;;;;;13.50;2.33;;;;;;;;;;5021482;28;20038;-65
2023/01/05 12:07:31;;;;;;;7.13;2.15;;;;;;;;;;5018715;28;20030;-65
2023/01/05 12:10:01;;;;;;;17.77;3.03;;;;;;;;;;5030257;28;20057;-65
2023/01/05 12:12:53;;;;;;;16.13;2.42;;;;;;;;;;5028987;28;20029;-65
2023/01/05 12:15:19;;;;;;;16.85;2.65;;;;;;;;;;5024797;28;20386;-65
2023/01/05 12:17:45;;;;;;;6.90;1.55;;;;;;;;;;5014822;28;20025;-65
2023/01/05 12:20:24;;;;;;;8.77;1.60;;;;;;;;;;5027916;28;20033;-65
2023/01/05 12:23:08;;;;;;;4.05;1.33;;;;;;;;;;5031618;28;20041;-65
2023/01/05 12:25:42;;;;;;;11.38;2.13;;;;;;;;;;5032359;28;20025;-65
2023/01/05 12:28:31;;;;;;;4.18;1.33;;;;;;;;;;5033030;28;20029;-65
2023/01/05 12:31:12;;;;;;;5.60;1.38;;;;;;;;;;5023742;28;20029;-65
2023/01/05 12:33:51;;;;;;;11.50;1.98;;;;;;;;;;5032552;28;20040;-65
2023/01/05 12:36:23;;;;;;;8.00;1.25;;;;;;;;;;5027222;28;20057;-65
2023/01/05 12:38:52;;;;;;;5.82;1.40;;;;;;;;;;5031270;28;20041;-66
2023/01/05 12:41:21;;;;;;;9.10;1.30;;;;;;;;;;5032099;28;20029;-64
2023/01/05 12:43:47;;;;;;;9.15;1.25;;;;;;;;;;5032544;28;20061;-65
2023/01/05 12:46:25;;;;;;;5.03;1.02;;;;;;;;;;5050746;28;20017;-65
2023/01/05 12:48:55;;;;;;;2.88;1.17;;;;;;;;;;5041265;28;20029;-65
2023/01/05 12:51:21;;;;;;;5.20;1.33;;;;;;;;;;5032161;28;20017;-65
2023/01/05 12:53:47;;;;;;;12.60;1.55;;;;;;;;;;5032459;28;20029;-65
2023/01/05 12:56:19;;;;;;;7.43;1.00;;;;;;;;;;5032595;28;20432;-65
2023/01/05 12:58:51;;;;;;;5.05;0.90;;;;;;;;;;5032038;28;20030;-64
2023/01/05 13:01:22;;;;;;;5.20;1.30;;;;;;;;;;5032263;28;20048;-64
2023/01/05 13:03:54;;;;;;;8.15;1.00;;;;;;;;;;5032428;28;20112;-64
2023/01/05 13:06:22;;;;;;;5.05;1.05;;;;;;;;;;5032122;28;20029;-64
2023/01/05 13:09:01;;;;;;;6.00;1.10;;;;;;;;;;5032615;28;20025;-64
2023/01/05 13:11:34;;;;;;;2.78;1.00;;;;;;;;;;5031998;28;20370;-64
2023/01/05 13:14:00;;;;;;;;;;;;;;;;;;5033152;28;20029;-64
2023/01/05 13:16:32;;;;;;;6.18;1.10;;;;;;;;;;5032400;28;19905;-64
2023/01/05 13:19:10;;;;;;;10.07;1.38;;;;;;;;;;5032672;28;20544;-64
2023/01/05 13:21:39;;;;;;;8.75;0.93;;;;;;;;;;5032584;28;20533;-64
2023/01/05 13:24:16;;;;;;;6.68;1.30;;;;;;;;;;5032066;28;20067;-64
2023/01/05 13:26:42;;;;;;;4.35;0.73;;;;;;;;;;5032277;28;20427;-64
2023/01/05 13:29:19;;;;;;;5.95;1.30;;;;;;;;;;5032613;28;20032;-64
2023/01/05 13:32:21;;;;;;;2.30;0.90;;;;;;;;;;5032334;28;20030;-64
2023/01/05 13:34:53;;;;;;;2.58;0.90;;;;;;;;;;5049969;28;20501;-64
2023/01/05 13:37:34;;;;;;;3.88;1.13;;;;;;;;;;5049608;28;20045;-64
2023/01/05 13:40:09;;;;;;;2.85;0.73;;;;;;;;;;5050117;28;20469;-64
2023/01/05 13:42:54;;;;;;;4.00;0.77;;;;;;;;;;5049877;28;20045;-64
2023/01/05 13:45:37;;;;;;;1.88;0.60;;;;;;;;;;5050022;28;20064;-64
2023/01/05 13:48:06;;;;;;;5.40;0.90;;;;;;;;;;5049859;28;20037;-64
2023/01/05 13:50:47;;;;;;;3.42;0.70;;;;;;;;;;5049796;28;20045;-64
2023/01/05 13:53:21;;;;;;;3.00;0.75;;;;;;;;;;5049817;28;20385;-64
2023/01/05 13:55:53;;;;;;;5.13;1.10;;;;;;;;;;5049917;28;20040;-64
2023/01/05 13:58:37;;;;;;;5.20;0.77;;;;;;;;;;5049946;28;20025;-64
2023/01/05 14:01:05;;;;;;;1.80;0.60;;;;;;;;;;5052494;28;20061;-64
2023/01/05 14:03:34;;;;;;;1.02;0.50;;;;;;;;;;5053659;28;20072;-64
2023/01/05 14:06:03;;;;;;;3.05;0.63;;;;;;;;;;5053449;28;20048;-64
2023/01/05 14:08:34;;;;;;;2.67;0.60;;;;;;;;;;5046305;28;20037;-64
2023/01/05 14:11:20;;;;;;;4.15;0.85;;;;;;;;;;5036012;28;20033;-63
2023/01/05 14:13:51;;;;;;;2.67;0.50;;;;;;;;;;5035569;28;20030;-64
2023/01/05 14:16:49;;;;;;;3.33;0.60;;;;;;;;;;5035855;28;20108;-64
2023/01/05 14:19:26;;;;;;;1.75;0.57;;;;;;;;;;5033594;28;20041;-64
2023/01/05 14:21:58;;;;;;;2.55;0.68;;;;;;;;;;5032971;28;20045;-64
2023/01/05 14:24:46;;;;;;;2.87;0.60;;;;;;;;;;5033235;28;20065;-64
2023/01/05 14:27:12;;;;;;;3.55;0.50;;;;;;;;;;5033191;28;20045;-64
2023/01/05 14:29:47;;;;;;;2.28;0.43;;;;;;;;;;5033291;28;20577;-64
2023/01/05 14:32:26;;;;;;;2.75;0.70;;;;;;;;;;5033397;28;20029;-64
2023/01/05 14:34:54;;;;;;;1.35;0.47;;;;;;;;;;5033719;28;20509;-64
2023/01/05 14:37:31;;;;;;;2.67;0.57;;;;;;;;;;5033883;28;20087;-64
2023/01/05 14:39:57;;;;;;;1.50;0.50;;;;;;;;;;5035724;28;20033;-64
2023/01/05 14:42:27;;;;;;;1.70;0.43;;;;;;;;;;5032327;28;20041;-64
2023/01/05 14:44:59;;;;;;;2.13;0.50;;;;;;;;;;5033136;28;20128;-65
2023/01/05 14:47:51;;;;;;;4.47;0.70;;;;;;;;;;5032997;28;20030;-65
2023/01/05 14:50:28;;;;;;;0.95;0.50;;;;;;;;;;5029972;28;20184;-65
2023/01/05 14:53:09;;;;;;;3.03;0.70;;;;;;;;;;5025547;28;20500;-64
2023/01/05 14:55:36;;;;;;;1.02;0.57;;;;;;;;;;5018789;28;20039;-64
2023/01/05 14:58:04;;;;;;;3.50;0.70;;;;;;;;;;5034999;28;20462;-65
2023/01/05 15:00:42;;;;;;;5.10;1.08;;;;;;;;;;5047968;28;20032;-64
2023/01/05 15:03:17;;;;;;;1.55;0.70;;;;;;;;;;5037952;28;20032;-64
2023/01/05 15:05:55;;;;;;;4.55;0.95;;;;;;;;;;5053828;28;20409;-64
2023/01/05 15:08:44;;;;;;;3.42;0.80;;;;;;;;;;5037125;28;20520;-64
2023/01/05 15:11:25;;;;;;;2.75;0.60;;;;;;;;;;5051540;28;20041;-64
2023/01/05 15:14:30;;;;;;;3.55;0.85;;;;;;;;;;5052269;28;20099;-64
2023/01/05 15:16:52;;;;;;;1.23;0.50;;;;;;;;;;5051750;28;20048;-64
2023/01/05 15:19:25;;;;;;;7.38;0.90;;;;;;;;;;5052286;28;20079;-64
2023/01/05 15:21:51;;;;;;;2.60;0.80;;;;;;;;;;5051129;28;20040;-64
2023/01/05 15:24:17;;;;;;;1.92;0.57;;;;;;;;;;5052295;28;20108;-64
2023/01/05 15:26:58;;;;;;;2.13;0.80;;;;;;;;;;5051997;28;20412;-64